Time;durP1;ratioP1;P1;durP2;ratioP2;P2;SDS_P1;SDS_P2;PMS_P1;PMS_P2;Temp;Humidity;BMP_temperature;BMP_pressure;BME280_temperature;BME280_humidity;BME280_pressure;Samples;Min_cycle;Max_cycle;Signal;HPM_P1;HPM_P2
2023/03/01 00:02:22;;;;;;;5.28;2.95;;;1.50;99.90;;;;;;5013592;28;20153;-73
2023/03/01 00:04:47;;;;;;;5.85;3.13;;;1.60;99.90;;;;;;5006917;28;20149;-73
2023/03/01 00:07:13;;;;;;;13.38;3.05;;;1.70;99.90;;;;;;5012843;28;20430;-70
2023/03/01 00:09:39;;;;;;;13.25;3.83;;;1.60;99.90;;;;;;5006381;28;20026;-72
2023/03/01 00:12:06;;;;;;;6.47;3.25;;;1.50;99.90;;;;;;5004603;28;20026;-73
2023/03/01 00:14:32;;;;;;;6.63;3.05;;;1.50;99.90;;;;;;5013263;28;20030;-73
2023/03/01 00:16:58;;;;;;;7.05;4.07;;;1.60;99.90;;;;;;5005674;28;20085;-72
2023/03/01 00:19:24;;;;;;;12.35;3.75;;;1.50;99.90;;;;;;5012856;28;20076;-72
2023/03/01 00:21:50;;;;;;;6.53;2.60;;;1.50;99.90;;;;;;5005947;28;20553;-72
2023/03/01 00:24:16;;;;;;;9.13;3.63;;;1.50;99.90;;;;;;5012987;28;20029;-73
2023/03/01 00:26:42;;;;;;;4.30;2.65;;;1.40;99.90;;;;;;5008578;28;20035;-72
2023/03/01 00:29:08;;;;;;;6.80;3.28;;;1.50;99.90;;;;;;5003259;28;20029;-73
2023/03/01 00:31:34;;;;;;;16.13;6.25;;;1.50;99.90;;;;;;5025143;28;20102;-72
2023/03/01 00:34:04;;;;;;;23.48;5.90;;;1.40;99.90;;;;;;5003479;28;20037;-72
2023/03/01 00:36:34;;;;;;;10.00;3.95;;;1.30;99.90;;;;;;5009124;28;20030;-72
2023/03/01 00:39:01;;;;;;;7.28;3.60;;;1.30;99.90;;;;;;5003238;28;20051;-72
2023/03/01 00:41:27;;;;;;;9.25;4.40;;;1.30;99.90;;;;;;5008676;28;20536;-73
2023/03/01 00:43:53;;;;;;;7.28;3.17;;;1.30;99.90;;;;;;5000284;28;20034;-73
2023/03/01 00:46:24;;;;;;;9.35;2.83;;;1.30;99.90;;;;;;5009590;28;20638;-72
2023/03/01 00:48:50;;;;;;;9.73;3.43;;;1.30;99.90;;;;;;4999707;28;20034;-72
2023/03/01 00:51:21;;;;;;;5.97;2.97;;;1.20;99.90;;;;;;5008404;28;20034;-72
2023/03/01 00:53:50;;;;;;;6.75;3.45;;;1.10;99.90;;;;;;5008687;28;20038;-72
2023/03/01 00:56:16;;;;;;;4.63;2.90;;;0.90;99.90;;;;;;5010104;28;20042;-72
2023/03/01 00:58:42;;;;;;;6.53;3.45;;;0.80;99.90;;;;;;5003011;28;20026;-72
2023/03/01 01:01:18;;;;;;;8.05;3.95;;;0.70;99.90;;;;;;5010521;28;20029;-72
2023/03/01 01:03:54;;;;;;;9.20;2.63;;;0.70;99.90;;;;;;5008022;28;20057;-72
2023/03/01 01:06:27;;;;;;;3.65;2.50;;;0.60;99.90;;;;;;4992670;28;20502;-72
2023/03/01 01:08:54;;;;;;;6.32;3.45;;;0.60;99.90;;;;;;4999817;23;20049;-74
2023/03/01 01:11:23;;;;;;;7.28;5.95;;;0.60;99.90;;;;;;5012336;28;20112;-75
2023/03/01 01:13:49;;;;;;;9.05;4.45;;;0.60;99.90;;;;;;5002440;28;20402;-74
2023/03/01 01:16:18;;;;;;;7.47;3.33;;;0.60;99.90;;;;;;5003010;28;20033;-74
2023/03/01 01:18:44;;;;;;;7.85;3.72;;;0.60;99.90;;;;;;5002411;28;20409;-74
2023/03/01 01:21:14;;;;;;;12.00;4.28;;;0.60;99.90;;;;;;5002723;28;20030;-74
2023/03/01 01:23:43;;;;;;;8.70;3.63;;;0.60;99.90;;;;;;5002141;28;20085;-75
2023/03/01 01:26:19;;;;;;;8.15;3.53;;;0.50;99.90;;;;;;5012195;28;20100;-75
2023/03/01 01:28:46;;;;;;;8.30;3.40;;;0.50;99.90;;;;;;5001546;28;20038;-74
2023/03/01 01:31:11;;;;;;;7.35;3.22;;;0.60;99.90;;;;;;4986434;28;20410;-75
2023/03/01 01:33:38;;;;;;;5.90;3.08;;;0.50;99.90;;;;;;5003668;28;20029;-75
2023/03/01 01:36:06;;;;;;;9.45;3.63;;;0.50;99.90;;;;;;5002637;28;20044;-74
2023/03/01 01:38:32;;;;;;;4.45;3.00;;;0.50;99.90;;;;;;5001569;28;20030;-75
2023/03/01 01:41:18;;;;;;;10.55;3.60;;;0.40;99.90;;;;;;5068057;28;20932;-75
2023/03/01 01:44:20;;;;;;;8.57;5.13;;;0.40;99.90;;;;;;5047688;28;20025;-74
2023/03/01 01:47:05;;;;;;;7.22;2.95;;;0.40;99.90;;;;;;5043839;28;20123;-74
2023/03/01 01:49:43;;;;;;;7.38;3.75;;;0.40;99.90;;;;;;5041366;28;20036;-75
2023/03/01 01:52:34;;;;;;;10.68;3.88;;;0.40;99.90;;;;;;5044519;28;20029;-74
2023/03/01 01:55:05;;;;;;;10.30;4.72;;;0.30;99.90;;;;;;5045606;28;20078;-74
2023/03/01 01:57:43;;;;;;;7.22;2.83;;;0.30;99.90;;;;;;5041526;28;20030;-75
2023/03/01 02:00:19;;;;;;;8.90;4.38;;;0.40;99.90;;;;;;5046333;28;20037;-73
2023/03/01 02:02:48;;;;;;;14.65;4.22;;;0.40;99.90;;;;;;5040472;28;20053;-74
2023/03/01 02:05:43;;;;;;;8.40;3.83;;;0.40;99.90;;;;;;5037343;28;20370;-74
2023/03/01 02:08:13;;;;;;;8.60;4.85;;;0.40;99.90;;;;;;5037709;28;20437;-74
2023/03/01 02:10:40;;;;;;;7.43;4.15;;;0.50;99.90;;;;;;5045756;28;20029;-74
2023/03/01 02:13:07;;;;;;;7.97;5.15;;;0.50;99.90;;;;;;5027637;28;20497;-75
2023/03/01 02:15:35;;;;;;;6.38;2.92;;;0.40;99.90;;;;;;5029638;28;20028;-74
2023/03/01 02:18:03;;;;;;;10.73;4.35;;;0.40;99.90;;;;;;5039351;28;20049;-74
2023/03/01 02:20:52;;;;;;;7.55;3.85;;;0.50;99.90;;;;;;5045926;28;20064;-75
2023/03/01 02:23:18;;;;;;;10.05;3.40;;;0.50;99.90;;;;;;5028714;28;20117;-75
2023/03/01 02:25:57;;;;;;;20.50;5.03;;;0.50;99.90;;;;;;5046116;28;20509;-74
2023/03/01 02:28:37;;;;;;;9.48;3.83;;;0.50;99.90;;;;;;5045365;28;20452;-74
2023/03/01 02:33:52;;;;;;;7.70;5.45;;;0.40;99.90;;;;;;5045430;28;20490;-74
2023/03/01 02:36:31;;;;;;;14.27;5.43;;;0.50;99.90;;;;;;5039427;28;20044;-74
2023/03/01 02:39:00;;;;;;;12.35;5.00;;;0.60;99.90;;;;;;5045057;28;20040;-74
2023/03/01 02:41:31;;;;;;;13.88;4.95;;;0.60;99.90;;;;;;5045995;28;20037;-74
2023/03/01 02:43:58;;;;;;;9.80;4.70;;;0.70;99.90;;;;;;5045055;28;20029;-73
2023/03/01 02:46:26;;;;;;;6.28;4.18;;;0.70;99.90;;;;;;5046924;28;20033;-74
2023/03/01 02:48:55;;;;;;;9.75;4.20;;;0.70;99.90;;;;;;5038421;28;20120;-74
2023/03/01 02:51:32;;;;;;;6.50;3.80;;;0.80;99.90;;;;;;5032877;28;20100;-74
2023/03/01 02:54:12;;;;;;;7.93;3.97;;;0.70;99.90;;;;;;5025338;28;20040;-74
2023/03/01 02:56:38;;;;;;;9.25;5.38;;;0.60;99.90;;;;;;5031476;28;20029;-74
2023/03/01 02:59:04;;;;;;;7.90;3.85;;;0.50;99.90;;;;;;5031969;28;20092;-74
2023/03/01 03:01:36;;;;;;;9.05;4.38;;;0.30;99.90;;;;;;5029829;28;20424;-74
2023/03/01 03:04:07;;;;;;;7.03;3.28;;;0.20;99.90;;;;;;5032995;28;20465;-74
2023/03/01 03:06:33;;;;;;;;;;;0.10;99.90;;;;;;5031329;28;20112;-74
2023/03/01 03:08:59;;;;;;;12.18;3.58;;;0.10;99.90;;;;;;5033168;28;19913;-75
2023/03/01 03:11:25;;;;;;;3.70;2.53;;;0.10;99.90;;;;;;5030712;28;20124;-74
2023/03/01 03:13:52;;;;;;;7.00;4.10;;;0.00;99.90;;;;;;5032584;28;20025;-74
2023/03/01 03:16:19;;;;;;;14.73;4.50;;;0.00;99.90;;;;;;5030421;28;20475;-74
2023/03/01 03:18:45;;;;;;;10.88;4.95;;;-0.10;99.90;;;;;;5031464;28;20032;-74
2023/03/01 03:21:12;;;;;;;8.23;4.70;;;-0.10;99.90;;;;;;5029973;28;20109;-74
2023/03/01 03:23:39;;;;;;;7.10;4.13;;;0.00;99.90;;;;;;5031577;28;20021;-74
2023/03/01 03:26:05;;;;;;;7.20;4.35;;;0.10;99.90;;;;;;5029340;28;20032;-74
2023/03/01 03:28:33;;;;;;;7.53;4.28;;;0.10;99.90;;;;;;5032896;28;20017;-74
2023/03/01 03:31:03;;;;;;;8.50;4.68;;;0.00;99.90;;;;;;5032264;28;20057;-74
2023/03/01 03:33:30;;;;;;;17.15;5.60;;;0.00;99.90;;;;;;5031638;28;20033;-73
2023/03/01 03:35:56;;;;;;;9.93;4.20;;;-0.10;99.90;;;;;;5029180;28;20032;-73
2023/03/01 03:38:22;;;;;;;7.38;4.55;;;-0.20;99.90;;;;;;5032349;28;20029;-74
2023/03/01 03:41:02;;;;;;;8.48;4.32;;;-0.20;99.90;;;;;;5029192;28;20535;-74
2023/03/01 03:43:29;;;;;;;8.60;4.65;;;-0.30;99.90;;;;;;5026112;28;20065;-74
2023/03/01 03:45:56;;;;;;;7.22;3.55;;;-0.20;99.90;;;;;;5030084;28;20071;-75
2023/03/01 03:48:23;;;;;;;6.38;3.20;;;-0.50;99.90;;;;;;5032079;28;20029;-75
2023/03/01 03:50:53;;;;;;;6.38;3.08;;;-0.50;99.90;;;;;;5029114;28;20041;-74
2023/03/01 03:53:20;;;;;;;8.75;3.90;;;-0.50;99.90;;;;;;5024145;28;20103;-74
2023/03/01 03:55:48;;;;;;;9.50;2.85;;;-0.50;99.90;;;;;;5029375;28;20495;-75
2023/03/01 03:58:16;;;;;;;14.40;5.38;;;-0.60;99.90;;;;;;5031597;28;20121;-74
2023/03/01 04:00:44;;;;;;;10.93;4.15;;;-0.50;99.90;;;;;;5029381;28;20025;-74
2023/03/01 04:03:12;;;;;;;11.80;3.97;;;-0.50;99.90;;;;;;5026358;28;20034;-74
2023/03/01 04:05:39;;;;;;;7.63;3.10;;;-0.40;99.90;;;;;;5028518;28;20091;-73
2023/03/01 04:08:09;;;;;;;8.45;3.80;;;-0.40;99.90;;;;;;5031094;28;20052;-74
2023/03/01 04:10:39;;;;;;;8.63;3.88;;;-0.40;99.90;;;;;;5030396;28;20374;-73
2023/03/01 04:13:07;;;;;;;6.82;3.50;;;-0.40;99.90;;;;;;5027389;28;20033;-74
2023/03/01 04:15:34;;;;;;;7.53;3.90;;;-0.50;99.90;;;;;;5030628;28;20443;-75
2023/03/01 04:18:01;;;;;;;10.18;5.07;;;-0.50;99.90;;;;;;5025777;28;20450;-75
2023/03/01 04:20:30;;;;;;;13.27;4.82;;;-0.50;99.90;;;;;;5031325;28;20041;-74
2023/03/01 04:23:16;;;;;;;8.55;4.05;;;-0.40;99.90;;;;;;5027024;28;20025;-74
2023/03/01 04:25:55;;;;;;;11.77;5.78;;;-0.50;99.90;;;;;;5030492;28;20025;-74
2023/03/01 04:28:34;;;;;;;8.82;5.72;;;-0.40;99.90;;;;;;5029474;28;20435;-74
2023/03/01 04:31:13;;;;;;;9.50;3.78;;;-0.40;99.90;;;;;;5031401;28;20508;-74
2023/03/01 04:33:43;;;;;;;13.18;4.28;;;-0.30;99.90;;;;;;5030878;28;20452;-74
2023/03/01 04:36:12;;;;;;;7.97;4.45;;;-0.30;99.90;;;;;;5030333;28;20037;-74
2023/03/01 04:38:39;;;;;;;13.60;5.78;;;-0.40;99.90;;;;;;5025632;28;20081;-74
2023/03/01 04:41:08;;;;;;;15.85;5.45;;;-0.50;99.90;;;;;;5031178;28;20037;-74
2023/03/01 04:43:35;;;;;;;18.75;6.95;;;-0.50;99.90;;;;;;5029387;28;20033;-74
2023/03/01 04:46:08;;;;;;;9.98;5.28;;;-0.50;99.90;;;;;;5030121;28;20018;-74
2023/03/01 04:48:36;;;;;;;11.30;4.82;;;-0.40;99.90;;;;;;5029244;28;20032;-74
2023/03/01 04:51:03;;;;;;;16.63;4.95;;;-0.30;99.90;;;;;;5046336;28;20060;-74
2023/03/01 04:53:30;;;;;;;9.52;5.00;;;-0.30;99.90;;;;;;5025055;28;20044;-74
2023/03/01 04:55:56;;;;;;;9.40;5.35;;;-0.20;99.90;;;;;;5031119;28;20026;-74
2023/03/01 04:58:24;;;;;;;10.15;4.38;;;-0.20;99.90;;;;;;5026037;28;20108;-74
2023/03/01 05:00:51;;;;;;;10.15;4.35;;;-0.10;99.90;;;;;;5030552;28;20095;-74
2023/03/01 05:03:18;;;;;;;8.15;5.18;;;-0.10;99.90;;;;;;5026309;28;20033;-74
2023/03/01 05:05:46;;;;;;;14.18;3.92;;;0.00;99.90;;;;;;5030962;28;20833;-74
2023/03/01 05:08:17;;;;;;;14.85;5.07;;;0.00;99.90;;;;;;5025039;28;20075;-74
2023/03/01 05:10:46;;;;;;;10.85;4.35;;;0.00;99.90;;;;;;5030703;28;20036;-74
2023/03/01 05:13:14;;;;;;;9.15;4.90;;;0.00;99.90;;;;;;5029047;28;20052;-74
2023/03/01 05:15:40;;;;;;;11.68;5.13;;;0.00;99.90;;;;;;5030330;28;20508;-74
2023/03/01 05:18:11;;;;;;;10.43;4.35;;;0.00;99.90;;;;;;5026010;28;20044;-74
2023/03/01 05:20:37;;;;;;;11.00;5.10;;;0.00;99.90;;;;;;5029235;28;20068;-74
2023/03/01 05:23:05;;;;;;;14.00;3.85;;;0.00;99.90;;;;;;5025718;28;20026;-74
2023/03/01 05:25:33;;;;;;;16.13;5.70;;;0.10;99.90;;;;;;5030884;28;20029;-74
2023/03/01 05:28:04;;;;;;;9.13;4.68;;;0.10;99.90;;;;;;5025932;28;20076;-74
2023/03/01 05:30:34;;;;;;;9.35;4.32;;;0.10;99.90;;;;;;5029062;28;20064;-74
2023/03/01 05:33:00;;;;;;;7.60;4.68;;;0.20;99.90;;;;;;5026046;28;20041;-74
2023/03/01 05:35:26;;;;;;;6.50;4.57;;;0.30;99.90;;;;;;4999303;28;20053;-74
2023/03/01 05:37:52;;;;;;;9.52;3.97;;;0.30;99.90;;;;;;5020395;28;20033;-74
2023/03/01 05:40:22;;;;;;;11.25;5.15;;;0.40;99.90;;;;;;5007366;28;20073;-74
2023/03/01 05:42:56;;;;;;;12.35;5.85;;;0.50;99.90;;;;;;5005317;28;20030;-83
2023/03/01 05:45:25;;;;;;;13.75;5.15;;;0.50;99.90;;;;;;5005597;28;20026;-80
2023/03/01 05:47:51;;;;;;;12.60;5.70;;;0.50;99.90;;;;;;5010167;28;20033;-79
2023/03/01 05:50:25;;;;;;;15.10;5.93;;;0.40;99.90;;;;;;5005746;28;20045;-79
2023/03/01 05:53:20;;;;;;;14.00;5.88;;;0.30;99.90;;;;;;5005213;28;20037;-79
2023/03/01 05:55:47;;;;;;;12.20;6.10;;;0.30;99.90;;;;;;5006119;28;20389;-79
2023/03/01 05:58:19;;;;;;;7.07;4.20;;;0.40;99.90;;;;;;5009572;28;20033;-79
2023/03/01 06:00:47;;;;;;;18.02;5.25;;;0.30;99.90;;;;;;5006379;28;20026;-80
2023/03/01 06:03:16;;;;;;;12.40;6.47;;;0.30;99.90;;;;;;5009205;28;20092;-80
2023/03/01 06:05:43;;;;;;;12.63;6.03;;;0.30;99.90;;;;;;5001296;28;20060;-83
2023/03/01 06:08:11;;;;;;;11.35;4.28;;;0.30;99.90;;;;;;5021454;28;20516;-77
2023/03/01 06:10:37;;;;;;;9.70;5.00;;;0.30;99.90;;;;;;5010109;28;20041;-80
2023/03/01 06:13:04;;;;;;;13.18;4.90;;;0.30;99.90;;;;;;5005558;28;20104;-78
2023/03/01 06:15:30;;;;;;;9.77;5.68;;;0.40;99.90;;;;;;5003406;28;20034;-80
2023/03/01 06:17:57;;;;;;;11.63;4.90;;;0.40;99.90;;;;;;5005185;28;20485;-78
2023/03/01 06:20:25;;;;;;;10.52;4.57;;;0.40;99.90;;;;;;5008215;28;20083;-76
2023/03/01 06:22:52;;;;;;;15.57;6.18;;;0.40;99.90;;;;;;5002838;28;20743;-79
2023/03/01 06:25:22;;;;;;;9.63;5.43;;;0.50;99.90;;;;;;5007332;28;20033;-78
2023/03/01 06:27:48;;;;;;;9.68;5.43;;;0.50;99.90;;;;;;5009350;28;20030;-79
2023/03/01 06:30:18;;;;;;;20.13;4.95;;;0.50;99.90;;;;;;5010072;28;20092;-79
2023/03/01 06:32:44;;;;;;;12.05;6.32;;;0.50;99.90;;;;;;5012307;28;20080;-78
2023/03/01 06:35:12;;;;;;;11.30;5.40;;;0.60;99.90;;;;;;5011682;28;20053;-77
2023/03/01 06:37:39;;;;;;;12.20;4.25;;;0.50;99.90;;;;;;5004350;28;20026;-76
2023/03/01 06:40:08;;;;;;;12.30;4.63;;;0.60;99.90;;;;;;5011655;28;20041;-77
2023/03/01 06:42:40;;;;;;;11.52;5.53;;;0.60;99.90;;;;;;5013534;28;20424;-76
2023/03/01 06:45:08;;;;;;;14.18;5.38;;;0.80;99.90;;;;;;5006805;28;20088;-76
2023/03/01 06:47:34;;;;;;;23.95;6.80;;;0.90;99.90;;;;;;5014540;28;20048;-78
2023/03/01 06:50:01;;;;;;;9.82;3.65;;;0.90;99.90;;;;;;5013266;28;20820;-76
2023/03/01 06:52:27;;;;;;;7.53;4.60;;;1.00;99.90;;;;;;5014130;28;20124;-78
2023/03/01 06:54:53;;;;;;;13.55;4.93;;;1.00;99.90;;;;;;5007945;28;20141;-79
2023/03/01 06:57:21;;;;;;;9.57;4.45;;;1.10;99.90;;;;;;5019020;28;20037;-78
2023/03/01 06:59:48;;;;;;;9.82;4.82;;;1.10;99.90;;;;;;5005892;28;20385;-79
2023/03/01 07:02:14;;;;;;;15.60;6.80;;;1.30;99.90;;;;;;5003705;28;20083;-71
2023/03/01 07:04:41;;;;;;;19.70;5.30;;;1.40;99.90;;;;;;5008043;28;20446;-80
2023/03/01 07:07:07;;;;;;;12.07;4.88;;;1.50;99.90;;;;;;5028049;23;20030;-73
2023/03/01 07:09:33;;;;;;;12.07;5.63;;;1.60;99.90;;;;;;5011259;28;20042;-74
2023/03/01 07:11:59;;;;;;;22.15;9.60;;;1.60;99.90;;;;;;5012428;28;20042;-74
2023/03/01 07:14:25;;;;;;;13.80;5.13;;;1.50;99.90;;;;;;5012751;28;20050;-74
2023/03/01 07:16:52;;;;;;;10.70;4.93;;;1.40;99.90;;;;;;4994983;28;20041;-73
2023/03/01 07:19:19;;;;;;;9.50;5.22;;;1.60;99.90;;;;;;5011778;28;20060;-74
2023/03/01 07:21:44;;;;;;;10.32;4.75;;;1.70;99.90;;;;;;4995246;28;20049;-74
2023/03/01 07:24:10;;;;;;;11.75;4.82;;;1.80;99.90;;;;;;5012310;28;20037;-74
2023/03/01 07:26:36;;;;;;;11.30;5.30;;;1.90;99.90;;;;;;5012745;28;20030;-74
2023/03/01 07:29:05;;;;;;;9.65;5.28;;;1.90;99.90;;;;;;5010796;28;20100;-74
2023/03/01 07:31:31;;;;;;;12.50;5.82;;;1.90;99.90;;;;;;4995236;28;20053;-74
2023/03/01 07:33:57;;;;;;;13.02;5.32;;;1.90;99.90;;;;;;5007036;28;20037;-75
2023/03/01 07:36:24;;;;;;;9.35;5.30;;;1.80;99.90;;;;;;5012178;28;20022;-74
2023/03/01 07:38:50;;;;;;;11.57;5.93;;;1.80;99.90;;;;;;5011407;28;20113;-74
2023/03/01 07:41:16;;;;;;;14.45;5.70;;;1.80;99.90;;;;;;4994291;28;20489;-74
2023/03/01 07:43:42;;;;;;;10.43;5.00;;;1.80;99.90;;;;;;4992237;28;20030;-74
2023/03/01 07:46:08;;;;;;;11.38;4.60;;;1.80;99.90;;;;;;5000473;28;20037;-75
2023/03/01 07:48:34;;;;;;;12.65;5.38;;;1.70;99.90;;;;;;4993827;28;20038;-74
2023/03/01 07:51:02;;;;;;;9.60;5.32;;;1.70;99.90;;;;;;5012042;28;20037;-74
2023/03/01 07:53:28;;;;;;;10.52;5.65;;;1.70;99.90;;;;;;4992735;28;20063;-73
2023/03/01 07:56:09;;;;;;;14.32;6.13;;;1.80;99.90;;;;;;5008840;28;20025;-73
2023/03/01 07:58:37;;;;;;;24.40;11.65;;;1.90;99.90;;;;;;4994156;28;20034;-73
2023/03/01 08:01:05;;;;;;;11.02;5.93;;;1.90;99.90;;;;;;5011822;28;20060;-73
2023/03/01 08:03:32;;;;;;;8.90;4.80;;;2.00;99.90;;;;;;5009592;28;20068;-73
2023/03/01 08:06:01;;;;;;;9.43;5.50;;;2.10;99.90;;;;;;5007993;28;20037;-73
2023/03/01 08:08:27;;;;;;;11.60;4.82;;;2.10;99.90;;;;;;5008835;28;20485;-73
2023/03/01 08:10:55;;;;;;;14.10;4.75;;;2.10;99.90;;;;;;5008207;28;20036;-74
2023/03/01 08:13:22;;;;;;;8.13;4.65;;;2.20;99.90;;;;;;5011118;28;20084;-74
2023/03/01 08:15:51;;;;;;;13.82;5.93;;;2.30;99.90;;;;;;5011518;28;20030;-73
2023/03/01 08:18:18;;;;;;;14.63;5.28;;;2.10;99.90;;;;;;4992145;28;20033;-72
2023/03/01 08:20:44;;;;;;;11.98;5.07;;;2.30;99.90;;;;;;4989068;28;20034;-74
2023/03/01 08:23:10;;;;;;;8.88;4.88;;;2.40;99.90;;;;;;4993348;28;20108;-73
2023/03/01 08:25:37;;;;;;;12.13;5.32;;;2.40;99.90;;;;;;5004578;28;20029;-73
2023/03/01 08:28:03;;;;;;;11.73;5.30;;;2.70;99.90;;;;;;4996879;28;20100;-74
2023/03/01 08:30:29;;;;;;;13.88;5.30;;;2.70;99.90;;;;;;5010994;28;20033;-73
2023/03/01 08:32:55;;;;;;;12.20;4.57;;;2.80;99.90;;;;;;5011280;28;20104;-74
2023/03/01 08:35:21;;;;;;;11.52;5.68;;;2.80;99.90;;;;;;4993248;28;20099;-73
2023/03/01 08:37:47;;;;;;;12.70;5.90;;;2.80;99.90;;;;;;4993506;28;20061;-73
2023/03/01 08:40:13;;;;;;;12.25;5.82;;;3.00;99.90;;;;;;4993205;28;20037;-74
2023/03/01 08:42:43;;;;;;;9.98;5.07;;;3.10;99.90;;;;;;4977365;28;20045;-73
2023/03/01 08:45:11;;;;;;;12.00;4.82;;;3.00;99.90;;;;;;5005533;28;20030;-73
2023/03/01 08:47:36;;;;;;;13.40;5.80;;;3.10;99.90;;;;;;5011013;28;20041;-72
2023/03/01 08:50:04;;;;;;;10.93;5.63;;;3.30;99.90;;;;;;5009630;28;20485;-73
2023/03/01 08:52:31;;;;;;;8.73;4.40;;;3.20;99.90;;;;;;5010909;28;20036;-74
2023/03/01 08:54:57;;;;;;;11.77;5.10;;;3.30;99.90;;;;;;4993173;28;20109;-74
2023/03/01 08:57:23;;;;;;;15.95;5.78;;;3.30;99.90;;;;;;5010510;28;20100;-74
2023/03/01 08:59:48;;;;;;;15.32;7.10;;;3.50;99.90;;;;;;4992884;28;20493;-73
2023/03/01 09:02:18;;;;;;;16.13;5.47;;;3.70;99.90;;;;;;5010657;28;20037;-72
2023/03/01 09:04:44;;;;;;;9.73;4.28;;;3.60;99.90;;;;;;4988176;28;20026;-73
2023/03/01 09:07:10;;;;;;;10.30;4.40;;;3.60;99.90;;;;;;4992618;28;20092;-73
2023/03/01 09:09:36;;;;;;;8.88;4.78;;;3.50;99.90;;;;;;5006397;28;20041;-72
2023/03/01 09:12:03;;;;;;;13.10;5.05;;;3.70;99.90;;;;;;5010342;28;20026;-74
2023/03/01 09:14:29;;;;;;;11.25;5.38;;;3.80;99.90;;;;;;5009908;28;20030;-72
2023/03/01 09:16:55;;;;;;;15.68;7.65;;;3.90;99.90;;;;;;5010180;28;20026;-73
2023/03/01 09:19:20;;;;;;;10.15;5.68;;;4.00;99.90;;;;;;5009449;28;20362;-74
2023/03/01 09:21:52;;;;;;;12.15;5.90;;;4.10;99.90;;;;;;5008251;28;20138;-74
2023/03/01 09:24:23;;;;;;;16.27;7.05;;;4.00;99.90;;;;;;4997143;28;20049;-74
2023/03/01 09:26:49;;;;;;;11.38;6.38;;;4.00;99.90;;;;;;5010748;28;20083;-74
2023/03/01 09:29:16;;;;;;;10.60;5.82;;;4.20;99.90;;;;;;5009538;28;20117;-74
2023/03/01 09:31:43;;;;;;;15.27;7.72;;;4.30;99.90;;;;;;4992803;28;20596;-75
2023/03/01 09:34:09;;;;;;;12.75;6.05;;;4.60;99.60;;;;;;5010121;28;20100;-74
2023/03/01 09:36:36;;;;;;;9.48;5.25;;;4.60;99.20;;;;;;4995322;28;20088;-74
2023/03/01 09:39:05;;;;;;;7.30;4.90;;;4.70;99.20;;;;;;4990138;28;20046;-76
2023/03/01 09:41:56;;;;;;;11.57;6.15;;;4.80;99.20;;;;;;4993005;28;20525;-74
2023/03/01 09:44:31;;;;;;;17.70;6.05;;;5.00;98.80;;;;;;5003852;28;20034;-77
2023/03/01 09:46:58;;;;;;;11.10;5.35;;;5.10;98.20;;;;;;4992851;28;20088;-76
2023/03/01 09:49:36;;;;;;;12.32;7.03;;;5.30;98.10;;;;;;4992142;28;20770;-76
2023/03/01 09:52:29;;;;;;;11.98;5.45;;;4.90;98.30;;;;;;4993508;28;20112;-76
2023/03/01 09:54:56;;;;;;;11.48;5.28;;;5.10;98.20;;;;;;4992904;28;20105;-74
2023/03/01 09:57:33;;;;;;;9.55;4.90;;;5.40;97.80;;;;;;5010321;28;20443;-73
2023/03/01 10:00:22;;;;;;;15.95;7.00;;;5.40;97.60;;;;;;5009372;28;20038;-74
2023/03/01 10:03:34;;;;;;;24.23;8.70;;;5.70;97.40;;;;;;4996074;28;20041;-74
2023/03/01 10:06:19;;;;;;;21.05;7.40;;;5.80;97.20;;;;;;5011474;28;20046;-77
2023/03/01 10:09:05;;;;;;;13.77;5.47;;;5.90;97.00;;;;;;4992351;28;20066;-75
2023/03/01 10:11:37;;;;;;;8.70;4.25;;;6.20;96.50;;;;;;4991491;28;20540;-75
2023/03/01 10:14:24;;;;;;;16.08;5.65;;;6.40;96.40;;;;;;5012208;28;20416;-73
2023/03/01 10:17:02;;;;;;;10.32;5.38;;;5.80;96.80;;;;;;4997764;28;20029;-74
2023/03/01 10:19:41;;;;;;;10.70;5.68;;;6.10;96.30;;;;;;5013239;28;20171;-76
2023/03/01 10:22:28;;;;;;;19.88;6.50;;;6.40;96.20;;;;;;5013534;28;20033;-75
2023/03/01 10:24:58;;;;;;;14.48;5.80;;;6.70;96.00;;;;;;4996600;28;20072;-75
2023/03/01 10:27:43;;;;;;;14.13;6.10;;;7.00;95.20;;;;;;4996415;28;20040;-75
2023/03/01 10:30:54;;;;;;;13.82;6.25;;;7.10;94.80;;;;;;4991857;28;20727;-77
2023/03/01 10:33:27;;;;;;;8.73;5.37;;;7.20;94.80;;;;;;4991435;28;20044;-79
2023/03/01 10:35:53;;;;;;;14.98;5.65;;;7.10;94.00;;;;;;4987900;28;20037;-75
2023/03/01 10:38:20;;;;;;;15.50;7.05;;;7.20;94.20;;;;;;4994868;28;20044;-72
2023/03/01 10:41:01;;;;;;;11.20;5.38;;;7.60;94.10;;;;;;4991522;28;20482;-75
2023/03/01 10:43:43;;;;;;;17.52;6.80;;;7.40;93.60;;;;;;5010440;28;20481;-75
2023/03/01 10:46:34;;;;;;;11.63;4.78;;;7.60;93.70;;;;;;4995909;28;20311;-75
2023/03/01 10:49:22;;;;;;;15.73;6.55;;;7.90;93.90;;;;;;4995753;28;20037;-73
2023/03/01 10:51:53;;;;;;;13.15;6.40;;;8.10;92.80;;;;;;4995138;28;20133;-72
2023/03/01 10:54:34;;;;;;;12.48;6.78;;;8.00;92.90;;;;;;4995495;28;20029;-69
2023/03/01 10:57:05;;;;;;;13.02;4.93;;;7.40;92.60;;;;;;5007387;28;20038;-68
2023/03/01 10:59:37;;;;;;;13.98;6.75;;;7.50;93.60;;;;;;5012665;28;20029;-68
2023/03/01 11:02:09;;;;;;;28.20;6.32;;;7.60;93.60;;;;;;4995022;28;20034;-70
2023/03/01 11:04:35;;;;;;;15.57;5.93;;;7.90;93.40;;;;;;5012683;28;20500;-69
2023/03/01 11:07:02;;;;;;;10.80;6.50;;;7.90;92.90;;;;;;5012146;28;20084;-69
2023/03/01 11:09:38;;;;;;;12.82;5.45;;;8.50;92.90;;;;;;5011480;28;20033;-70
2023/03/01 11:12:14;;;;;;;15.88;5.75;;;9.20;91.70;;;;;;5011851;28;20029;-69
2023/03/01 11:14:49;;;;;;;13.00;5.88;;;9.40;91.40;;;;;;4996007;28;20029;-75
2023/03/01 11:17:31;;;;;;;10.93;5.95;;;9.10;90.80;;;;;;4994619;28;20027;-74
2023/03/01 11:20:07;;;;;;;12.07;5.88;;;8.20;91.00;;;;;;5012687;28;20038;-74
2023/03/01 11:22:35;;;;;;;16.17;6.90;;;8.70;91.80;;;;;;5006707;28;20069;-74
2023/03/01 11:25:02;;;;;;;14.05;6.15;;;8.90;91.60;;;;;;4995647;28;20025;-74
2023/03/01 11:27:31;;;;;;;13.35;5.38;;;10.10;90.50;;;;;;5012044;28;20018;-73
2023/03/01 11:30:20;;;;;;;32.78;6.10;;;11.50;87.60;;;;;;4995297;28;20030;-74
2023/03/01 11:33:12;;;;;;;12.50;5.65;;;10.70;87.60;;;;;;5017246;28;20485;-74
2023/03/01 11:36:05;;;;;;;12.90;5.80;;;13.50;80.40;;;;;;4996469;28;20048;-73
2023/03/01 11:38:36;;;;;;;11.70;5.35;;;12.10;79.00;;;;;;4984124;28;20038;-73
2023/03/01 11:41:12;;;;;;;11.85;5.65;;;14.10;76.60;;;;;;4992122;28;20033;-74
2023/03/01 11:44:09;;;;;;;15.65;6.50;;;11.60;80.70;;;;;;5012162;28;20651;-74
2023/03/01 11:47:15;;;;;;;15.52;6.43;;;11.90;77.90;;;;;;5011672;28;20030;-74
2023/03/01 11:50:14;;;;;;;15.65;5.65;;;13.80;75.80;;;;;;5005485;28;20046;-76
2023/03/01 11:52:55;;;;;;;13.02;5.75;;;14.90;72.10;;;;;;4993220;28;20081;-76
2023/03/01 11:55:29;;;;;;;13.73;5.85;;;15.80;67.20;;;;;;4979908;28;20033;-75
2023/03/01 11:58:37;;;;;;;11.27;5.93;;;13.70;71.60;;;;;;4991223;28;20067;-75
2023/03/01 12:01:30;;;;;;;13.98;5.97;;;16.30;67.50;;;;;;5011610;28;20026;-75
2023/03/01 12:04:46;;;;;;;17.08;6.10;;;17.30;64.90;;;;;;4994682;28;20026;-76
2023/03/01 12:07:24;;;;;;;13.88;6.05;;;17.10;62.70;;;;;;5011591;28;20053;-75
2023/03/01 12:10:31;;;;;;;13.07;5.78;;;15.80;61.20;;;;;;4990442;28;20098;-76
2023/03/01 12:13:10;;;;;;;13.18;6.07;;;13.50;64.90;;;;;;5000698;28;20105;-75
2023/03/01 12:15:48;;;;;;;12.80;6.55;;;13.70;66.70;;;;;;4994102;28;20046;-76
2023/03/01 12:18:50;;;;;;;13.40;5.97;;;15.60;64.60;;;;;;4993388;28;20040;-75
2023/03/01 12:21:54;;;;;;;12.32;5.50;;;12.70;67.30;;;;;;5011273;28;20498;-75
2023/03/01 12:25:05;;;;;;;9.27;4.75;;;15.80;65.60;;;;;;5002304;28;20521;-75
2023/03/01 12:27:45;;;;;;;13.80;4.90;;;15.80;62.20;;;;;;4947637;28;20038;-76
2023/03/01 12:30:53;;;;;;;10.48;5.13;;;15.10;65.60;;;;;;4993093;28;20038;-76
2023/03/01 12:33:52;;;;;;;12.65;5.80;;;15.00;64.10;;;;;;4992273;28;20029;-75
2023/03/01 12:36:24;;;;;;;10.15;4.88;;;16.60;61.80;;;;;;4986825;28;20045;-75
2023/03/01 12:39:32;;;;;;;15.75;7.65;;;14.60;62.80;;;;;;4989190;28;20026;-74
2023/03/01 12:42:21;;;;;;;10.73;4.97;;;16.00;62.70;;;;;;5008743;28;20489;-75
2023/03/01 12:45:12;;;;;;;14.13;6.05;;;14.60;62.40;;;;;;5010906;28;20040;-75
2023/03/01 12:48:23;;;;;;;13.55;5.65;;;13.20;64.20;;;;;;4989512;28;20034;-75
2023/03/01 12:50:53;;;;;;;12.02;5.90;;;14.10;65.40;;;;;;5007086;28;20116;-76
2023/03/01 12:53:29;;;;;;;11.75;5.47;;;14.40;63.60;;;;;;4993165;28;20030;-75
2023/03/01 12:56:01;;;;;;;16.30;6.45;;;13.50;64.60;;;;;;5010773;28;20108;-74
2023/03/01 12:58:34;;;;;;;8.55;4.50;;;14.60;65.10;;;;;;4993211;28;20669;-75
2023/03/01 13:01:40;;;;;;;9.27;5.00;;;16.40;62.10;;;;;;4993584;28;20506;-75
2023/03/01 13:04:39;;;;;;;9.10;4.82;;;15.30;62.40;;;;;;4992787;28;20045;-76
2023/03/01 13:10:16;;;;;;;13.25;5.32;;;15.50;61.30;;;;;;4985140;28;20050;-75
2023/03/01 13:12:46;;;;;;;12.83;4.73;;;15.20;62.80;;;;;;4980623;28;20308;-76
2023/03/01 13:15:23;;;;;;;10.60;5.30;;;15.00;62.40;;;;;;4990600;28;20042;-75
2023/03/01 13:18:25;;;;;;;13.30;4.80;;;16.90;60.00;;;;;;4982105;28;20058;-74
2023/03/01 13:20:53;;;;;;;;;;;16.50;60.20;;;;;;4966431;28;20508;-75
2023/03/01 13:23:21;;;;;;;12.48;6.03;;;15.80;59.60;;;;;;4976634;28;19913;-73